Time;durP1;ratioP1;P1;durP2;ratioP2;P2;SDS_P1;SDS_P2;PMS_P1;PMS_P2;Temp;Humidity;BMP_temperature;BMP_pressure;BME280_temperature;BME280_humidity;BME280_pressure;Samples;Min_cycle;Max_cycle;Signal;HPM_P1;HPM_P2
2021/10/08 07:09:04;;;;;;;10.75;3.22;;;18.40;66.20;;;;;;4786634;30;20192;-70
2021/10/08 07:11:30;;;;;;;11.32;3.20;;;18.40;66.60;;;;;;4773630;30;20056;-69
2021/10/08 07:13:56;;;;;;;10.75;3.08;;;18.50;66.90;;;;;;4789450;30;20362;-70
2021/10/08 07:16:24;;;;;;;12.65;3.15;;;18.40;66.90;;;;;;4789495;30;20051;-69
2021/10/08 07:18:54;;;;;;;9.02;3.03;;;18.40;67.10;;;;;;4789447;30;20063;-70
2021/10/08 07:21:20;;;;;;;7.97;3.13;;;18.50;67.30;;;;;;4789420;30;20057;-70
2021/10/08 07:23:47;;;;;;;6.47;2.33;;;18.50;67.30;;;;;;4789354;30;20055;-70
2021/10/08 07:26:14;;;;;;;8.00;2.60;;;18.60;67.30;;;;;;4789325;30;20051;-70
2021/10/08 07:28:40;;;;;;;4.85;2.22;;;18.70;67.70;;;;;;4790087;29;20059;-69
2021/10/08 07:31:07;;;;;;;5.35;2.15;;;18.80;66.90;;;;;;4792279;30;20048;-71
2021/10/08 07:33:34;;;;;;;8.13;2.60;;;18.90;66.70;;;;;;4792370;30;20134;-71
2021/10/08 07:36:00;;;;;;;3.97;2.15;;;18.90;66.60;;;;;;4792342;30;20066;-70
2021/10/08 07:38:26;;;;;;;6.35;2.58;;;19.00;66.50;;;;;;4792290;30;20055;-71
2021/10/08 07:40:52;;;;;;;4.80;2.40;;;19.00;66.40;;;;;;4792340;30;20474;-70
2021/10/08 07:43:18;;;;;;;3.25;1.38;;;19.00;66.50;;;;;;4792190;30;20058;-71
2021/10/08 07:45:43;;;;;;;4.22;1.92;;;19.00;66.70;;;;;;4792236;30;20139;-70
2021/10/08 07:48:09;;;;;;;3.78;1.50;;;19.00;66.60;;;;;;4776495;30;20059;-70
2021/10/08 07:50:35;;;;;;;5.72;2.20;;;19.00;66.60;;;;;;4781973;30;20047;-70
2021/10/08 07:53:01;;;;;;;5.25;2.28;;;19.00;66.80;;;;;;4767752;30;20093;-71
2021/10/08 07:55:27;;;;;;;5.72;2.63;;;19.00;66.80;;;;;;4774041;30;20047;-71
2021/10/08 07:57:52;;;;;;;3.08;2.00;;;18.90;66.90;;;;;;4774201;30;20059;-71
2021/10/08 08:00:18;;;;;;;6.00;2.53;;;18.80;67.00;;;;;;4758505;30;20131;-70
2021/10/08 08:02:44;;;;;;;7.95;3.15;;;18.80;68.00;;;;;;4774512;30;20055;-70
2021/10/08 08:05:10;;;;;;;5.25;2.28;;;18.80;67.30;;;;;;4774076;30;20055;-70
2021/10/08 08:07:36;;;;;;;5.38;2.40;;;18.70;67.50;;;;;;4774140;30;20067;-70
2021/10/08 08:10:04;;;;;;;6.25;2.95;;;18.70;67.50;;;;;;4758678;30;20434;-71
2021/10/08 08:12:30;;;;;;;5.15;2.75;;;18.60;67.50;;;;;;4773855;30;20139;-69
2021/10/08 08:14:56;;;;;;;8.05;2.88;;;18.70;67.70;;;;;;4773649;30;20147;-70
2021/10/08 08:17:21;;;;;;;6.32;2.88;;;18.70;67.90;;;;;;4773372;30;20134;-69
2021/10/08 08:19:47;;;;;;;4.03;2.30;;;18.70;68.00;;;;;;4773714;30;20114;-70
2021/10/08 08:22:14;;;;;;;3.67;1.95;;;18.70;67.90;;;;;;4773658;30;20052;-70
2021/10/08 08:24:39;;;;;;;6.95;2.47;;;18.80;68.10;;;;;;4773585;30;20056;-69
2021/10/08 08:27:05;;;;;;;4.15;2.05;;;18.80;68.10;;;;;;4773350;30;20059;-69
2021/10/08 08:29:31;;;;;;;6.43;2.50;;;18.80;68.10;;;;;;4773671;30;20059;-69
2021/10/08 08:31:57;;;;;;;5.35;2.58;;;18.80;68.00;;;;;;4773541;30;20381;-70
2021/10/08 08:34:23;;;;;;;8.88;2.50;;;18.80;67.90;;;;;;4773620;30;20063;-70
2021/10/08 08:36:49;;;;;;;4.80;2.03;;;18.80;67.90;;;;;;4783284;30;20473;-70
2021/10/08 08:39:16;;;;;;;7.50;2.85;;;18.80;67.80;;;;;;4790931;30;20480;-70
2021/10/08 08:41:42;;;;;;;3.72;2.50;;;18.80;68.00;;;;;;4791052;30;20120;-70
2021/10/08 08:44:08;;;;;;;8.02;3.10;;;18.80;68.00;;;;;;4791128;30;20062;-71
2021/10/08 08:46:34;;;;;;;5.30;2.00;;;18.80;68.10;;;;;;4791104;30;20055;-70
2021/10/08 08:49:00;;;;;;;6.50;2.30;;;18.80;68.30;;;;;;4791374;30;20138;-70
2021/10/08 08:51:27;;;;;;;6.13;2.60;;;18.80;68.30;;;;;;4790188;30;20058;-69
2021/10/08 08:53:58;;;;;;;7.32;2.55;;;18.80;68.40;;;;;;4788067;30;20387;-71
2021/10/08 08:56:25;;;;;;;4.55;2.25;;;18.80;68.40;;;;;;4780924;30;20451;-69
2021/10/08 08:58:59;;;;;;;3.95;2.40;;;18.80;68.50;;;;;;4780685;30;20363;-70
2021/10/08 09:01:24;;;;;;;5.22;2.45;;;18.80;68.70;;;;;;4772597;30;20059;-69
2021/10/08 09:04:20;;;;;;;4.22;2.75;;;18.70;68.80;;;;;;4772824;30;20055;-69
2021/10/08 09:06:48;;;;;;;5.95;2.58;;;18.70;69.00;;;;;;4757870;30;20401;-70
2021/10/08 09:09:19;;;;;;;4.18;2.45;;;18.70;69.10;;;;;;4772364;30;20099;-70
2021/10/08 09:11:48;;;;;;;6.05;2.30;;;18.60;69.10;;;;;;4772711;30;20091;-69
2021/10/08 09:14:24;;;;;;;3.30;2.38;;;18.60;69.20;;;;;;4757111;30;20212;-70
2021/10/08 09:17:07;;;;;;;6.50;2.55;;;18.60;69.20;;;;;;4773436;30;20048;-69
2021/10/08 09:20:11;;;;;;;11.52;3.25;;;18.60;70.00;;;;;;4772642;30;20126;-71
2021/10/08 09:22:38;;;;;;;5.35;3.08;;;18.60;69.40;;;;;;4772855;30;20067;-69
2021/10/08 09:25:23;;;;;;;5.78;3.28;;;18.60;69.60;;;;;;4772493;30;20453;-69
2021/10/08 09:28:09;;;;;;;6.88;3.55;;;18.60;69.10;;;;;;4772479;30;20106;-71
2021/10/08 09:30:42;;;;;;;6.63;3.10;;;18.60;69.20;;;;;;4776501;30;20051;-70
2021/10/08 09:33:10;;;;;;;8.13;3.47;;;18.60;69.20;;;;;;4789758;30;20142;-70
2021/10/08 09:35:37;;;;;;;4.95;2.83;;;18.60;69.20;;;;;;4790056;30;20051;-70
2021/10/08 09:38:07;;;;;;;4.68;2.88;;;18.60;69.30;;;;;;4790376;30;20058;-69
2021/10/08 09:40:36;;;;;;;6.97;3.78;;;18.60;69.40;;;;;;4790236;30;20106;-70
2021/10/08 09:43:08;;;;;;;10.65;6.88;;;18.60;69.50;;;;;;4790775;30;20058;-69
2021/10/08 09:45:51;;;;;;;7.85;3.65;;;18.10;65.10;;;;;;4790220;30;20082;-69
2021/10/08 09:48:22;;;;;;;8.77;4.05;;;18.00;69.90;;;;;;4790150;30;20052;-70
2021/10/08 09:51:13;;;;;;;8.30;3.75;;;18.10;70.10;;;;;;4790138;30;20066;-70
2021/10/08 09:53:48;;;;;;;7.57;3.80;;;18.20;70.40;;;;;;4789788;30;20086;-70
2021/10/08 09:56:40;;;;;;;6.60;3.78;;;18.20;70.30;;;;;;4790180;30;20112;-71
2021/10/08 09:59:10;;;;;;;7.68;4.68;;;18.30;70.30;;;;;;4789804;30;20070;-70
2021/10/08 10:01:36;;;;;;;11.98;7.95;;;18.40;70.00;;;;;;4789974;30;20059;-72
2021/10/08 10:04:04;;;;;;;15.82;10.75;;;18.40;69.60;;;;;;4790176;30;20054;-69
2021/10/08 10:06:30;;;;;;;14.48;11.55;;;18.50;68.70;;;;;;4789415;30;20051;-70
2021/10/08 10:08:56;;;;;;;15.23;11.05;;;18.50;68.30;;;;;;4789669;30;20442;-72
2021/10/08 10:11:25;;;;;;;16.48;11.48;;;18.50;68.30;;;;;;4789821;30;20099;-72
2021/10/08 10:13:57;;;;;;;16.42;12.48;;;18.50;68.30;;;;;;4790031;30;20072;-72
2021/10/08 10:16:25;;;;;;;18.38;12.52;;;18.50;68.30;;;;;;4774116;30;20051;-73
2021/10/08 10:18:56;;;;;;;18.42;13.68;;;18.50;68.30;;;;;;4789529;30;20051;-73
2021/10/08 10:21:23;;;;;;;19.02;14.93;;;18.50;68.20;;;;;;4774260;30;20059;-73
2021/10/08 10:23:52;;;;;;;20.67;14.25;;;18.50;68.70;;;;;;4790034;30;20056;-72
2021/10/08 10:26:20;;;;;;;20.15;14.50;;;18.50;68.60;;;;;;4790470;30;20444;-73
2021/10/08 10:28:46;;;;;;;21.40;15.18;;;18.50;68.30;;;;;;4789454;30;20459;-74
2021/10/08 10:31:13;;;;;;;19.42;15.27;;;18.50;68.90;;;;;;4789758;30;20112;-73
2021/10/08 10:33:40;;;;;;;22.58;15.77;;;18.50;68.10;;;;;;4789227;30;20471;-72
2021/10/08 10:36:21;;;;;;;23.30;17.58;;;18.50;67.90;;;;;;4789538;30;20051;-73
2021/10/08 10:38:47;;;;;;;22.98;17.52;;;18.50;67.70;;;;;;4789854;30;20048;-72
2021/10/08 10:41:12;;;;;;;26.65;19.98;;;18.50;67.80;;;;;;4789952;30;20107;-73
2021/10/08 10:43:51;;;;;;;30.42;20.30;;;18.50;68.00;;;;;;4789510;30;20134;-71
2021/10/08 10:52:01;;;;;;;25.42;18.58;;;18.40;68.00;;;;;;4789222;30;20067;-70
2021/10/08 10:54:43;;;;;;;23.50;17.30;;;18.30;68.20;;;;;;4789444;30;20051;-70
2021/10/08 10:57:18;;;;;;;22.52;17.63;;;18.30;68.40;;;;;;4789599;30;20060;-70
2021/10/08 10:59:44;;;;;;;22.48;16.60;;;18.30;68.70;;;;;;4789518;30;20064;-71
2021/10/08 11:02:17;;;;;;;20.27;16.15;;;18.20;68.80;;;;;;4789074;29;20058;-71
2021/10/08 11:04:45;;;;;;;21.42;16.67;;;18.20;69.00;;;;;;4792446;30;20084;-71
2021/10/08 11:07:11;;;;;;;21.60;15.88;;;18.30;69.20;;;;;;4777340;30;20067;-70
2021/10/08 11:09:39;;;;;;;20.05;15.77;;;18.20;69.30;;;;;;4777016;30;20120;-70
2021/10/08 11:12:28;;;;;;;19.05;14.70;;;18.20;69.40;;;;;;4792770;30;20505;-71
2021/10/08 11:15:17;;;;;;;20.20;14.73;;;18.20;69.50;;;;;;4792726;30;20055;-71
2021/10/08 11:17:44;;;;;;;17.45;13.10;;;18.20;69.60;;;;;;4784027;29;20098;-70
2021/10/08 11:23:03;;;;;;;17.23;13.05;;;18.20;69.90;;;;;;4792311;30;20058;-69
2021/10/08 11:25:33;;;;;;;15.83;12.13;;;18.20;69.90;;;;;;4777192;30;20116;-70
2021/10/08 11:28:00;;;;;;;16.92;13.57;;;18.20;70.20;;;;;;4792625;30;20392;-70
2021/10/08 11:30:27;;;;;;;16.77;12.93;;;18.10;69.20;;;;;;4792361;30;20055;-70
2021/10/08 11:32:56;;;;;;;20.33;13.65;;;17.90;69.00;;;;;;4774320;30;20090;-69
2021/10/08 11:35:35;;;;;;;18.88;12.55;;;17.70;69.70;;;;;;4774823;30;20062;-70
2021/10/08 11:38:05;;;;;;;17.70;13.60;;;17.60;69.50;;;;;;4759146;30;20376;-70
2021/10/08 11:40:38;;;;;;;17.48;12.23;;;17.50;70.00;;;;;;4774490;30;20048;-70
2021/10/08 11:43:07;;;;;;;16.38;11.02;;;17.40;70.30;;;;;;4774816;30;20102;-69
2021/10/08 11:45:43;;;;;;;15.40;11.85;;;17.30;70.50;;;;;;4774012;30;20087;-69
2021/10/08 11:48:32;;;;;;;17.77;11.23;;;17.30;70.80;;;;;;4758948;30;20060;-69
2021/10/08 11:53:41;;;;;;;14.13;10.48;;;17.20;71.20;;;;;;4774406;30;20059;-69
2021/10/08 11:56:33;;;;;;;13.20;9.52;;;17.20;71.30;;;;;;4773984;30;20460;-70
2021/10/08 11:58:59;;;;;;;11.90;9.18;;;17.20;71.40;;;;;;4758525;30;20056;-70
2021/10/08 12:01:30;;;;;;;12.38;9.23;;;17.20;71.60;;;;;;4773996;30;20056;-70
2021/10/08 12:03:56;;;;;;;11.85;9.52;;;17.20;71.60;;;;;;4774134;30;20062;-69
2021/10/08 12:06:29;;;;;;;11.90;9.35;;;17.10;71.70;;;;;;4773883;30;20472;-71
2021/10/08 12:08:56;;;;;;;10.52;8.07;;;17.10;71.70;;;;;;4774262;30;20147;-70
2021/10/08 12:11:26;;;;;;;10.98;7.75;;;17.20;71.80;;;;;;4758422;30;20075;-70
2021/10/08 12:13:59;;;;;;;12.50;8.55;;;17.10;71.90;;;;;;4773672;30;20060;-69
2021/10/08 12:16:36;;;;;;;11.45;8.27;;;17.10;71.90;;;;;;4757592;30;20055;-70
2021/10/08 12:19:02;;;;;;;12.35;8.07;;;17.10;72.00;;;;;;4773594;30;20052;-70
2021/10/08 12:21:36;;;;;;;12.55;8.10;;;17.10;72.00;;;;;;4758307;30;20048;-70
2021/10/08 12:24:06;;;;;;;;;;;17.10;72.10;;;;;;4758926;30;20386;-69
2021/10/08 12:26:33;;;;;;;10.38;7.00;;;17.10;72.20;;;;;;4773563;30;19926;-70
2021/10/08 12:29:05;;;;;;;8.60;6.78;;;17.10;72.30;;;;;;4758115;30;20056;-70
2021/10/08 12:31:49;;;;;;;8.73;6.88;;;17.10;72.30;;;;;;4773465;30;20048;-70
2021/10/08 12:34:40;;;;;;;9.77;6.60;;;17.10;72.30;;;;;;4773613;30;20057;-70
2021/10/08 12:37:11;;;;;;;9.60;6.80;;;17.10;72.30;;;;;;4758580;30;20056;-69
2021/10/08 12:39:40;;;;;;;9.05;6.78;;;17.10;72.40;;;;;;4773368;30;20051;-69
2021/10/08 12:42:20;;;;;;;8.05;6.90;;;17.10;72.30;;;;;;4773065;30;20062;-70
2021/10/08 12:45:19;;;;;;;8.57;6.45;;;17.10;72.30;;;;;;4773358;30;20491;-70
2021/10/08 12:47:45;;;;;;;10.50;7.47;;;17.10;72.30;;;;;;4773428;30;20446;-69
2021/10/08 12:50:22;;;;;;;7.93;6.78;;;17.10;72.50;;;;;;4773090;30;20056;-69
2021/10/08 12:52:50;;;;;;;9.95;6.15;;;17.10;72.40;;;;;;4773501;30;20372;-70
2021/10/08 12:55:24;;;;;;;8.55;6.63;;;17.10;72.60;;;;;;4773059;30;20068;-70
2021/10/08 12:58:11;;;;;;;;;;;17.10;72.70;;;;;;4773749;30;20554;-70
2021/10/08 13:00:44;;;;;;;8.57;6.07;;;17.10;72.70;;;;;;4772973;30;19926;-69
2021/10/08 13:03:28;;;;;;;7.30;6.25;;;17.10;72.80;;;;;;4757314;30;20133;-70
2021/10/08 13:05:54;;;;;;;7.68;5.68;;;17.10;72.80;;;;;;4773044;30;20068;-69
2021/10/08 13:08:22;;;;;;;7.72;6.03;;;17.10;72.90;;;;;;4772711;30;20055;-69
2021/10/08 13:11:08;;;;;;;6.88;5.88;;;17.10;72.90;;;;;;4772844;30;20052;-69
2021/10/08 13:13:36;;;;;;;6.82;5.70;;;17.10;72.90;;;;;;4757509;30;20056;-70
2021/10/08 13:16:04;;;;;;;7.38;5.07;;;17.10;72.90;;;;;;4773038;30;20051;-69
2021/10/08 13:18:45;;;;;;;7.90;5.38;;;17.10;73.00;;;;;;4772842;30;20044;-70
2021/10/08 13:21:15;;;;;;;8.43;5.20;;;17.10;73.00;;;;;;4772708;30;20059;-69
2021/10/08 13:23:41;;;;;;;6.82;5.47;;;17.10;73.00;;;;;;4756848;30;20075;-70
2021/10/08 13:26:07;;;;;;;5.93;5.32;;;17.10;73.10;;;;;;4773426;30;20092;-69
2021/10/08 13:28:33;;;;;;;5.68;4.90;;;17.10;73.00;;;;;;4772362;30;20093;-69
2021/10/08 13:30:59;;;;;;;6.65;5.13;;;17.10;73.10;;;;;;4772850;30;20138;-70
2021/10/08 13:33:25;;;;;;;6.63;4.93;;;17.10;73.70;;;;;;4757038;30;20480;-69
2021/10/08 13:36:00;;;;;;;7.05;5.57;;;17.10;73.20;;;;;;4772395;30;20063;-70
2021/10/08 13:38:27;;;;;;;6.22;4.97;;;17.10;73.10;;;;;;4772018;30;20055;-69
2021/10/08 13:40:56;;;;;;;6.18;4.90;;;17.20;73.20;;;;;;4772932;30;20047;-69
2021/10/08 13:43:22;;;;;;;5.72;4.50;;;17.10;73.20;;;;;;4772571;30;20139;-69
2021/10/08 13:45:48;;;;;;;6.88;4.82;;;17.20;73.30;;;;;;4772102;30;20051;-70
2021/10/08 13:48:14;;;;;;;5.65;4.68;;;17.10;73.30;;;;;;4772190;30;20066;-70
2021/10/08 13:50:40;;;;;;;5.38;4.60;;;17.10;73.30;;;;;;4772642;30;20134;-70
2021/10/08 13:53:06;;;;;;;5.38;4.80;;;17.10;73.40;;;;;;4772008;30;20498;-70
2021/10/08 13:55:36;;;;;;;6.20;4.95;;;17.20;73.40;;;;;;4772106;30;20083;-69
2021/10/08 13:58:08;;;;;;;5.15;4.18;;;17.20;73.40;;;;;;4772229;30;20052;-69
2021/10/08 14:00:52;;;;;;;4.60;4.20;;;17.20;73.50;;;;;;4772257;30;20372;-69
2021/10/08 14:11:13;;;;;;;5.32;4.03;;;17.20;73.50;;;;;;4771844;30;20388;-70
2021/10/08 14:13:39;;;;;;;5.82;4.63;;;17.20;73.50;;;;;;4771916;30;20067;-69
2021/10/08 14:16:05;;;;;;;6.00;4.50;;;17.20;73.50;;;;;;4771829;30;20138;-70
2021/10/08 14:18:31;;;;;;;4.72;4.03;;;17.20;73.50;;;;;;4771709;30;20052;-69
2021/10/08 14:20:57;;;;;;;4.65;4.13;;;17.20;73.50;;;;;;4771734;30;20044;-70
2021/10/08 14:23:24;;;;;;;4.75;4.10;;;17.20;73.50;;;;;;4771746;30;20139;-69
2021/10/08 14:25:50;;;;;;;5.00;4.20;;;17.30;73.60;;;;;;4771897;30;20535;-70
2021/10/08 14:28:17;;;;;;;4.20;3.80;;;17.20;73.50;;;;;;4771624;30;20135;-70
2021/10/08 14:30:44;;;;;;;4.60;4.00;;;17.30;73.50;;;;;;4756511;30;20129;-70
2021/10/08 14:33:09;;;;;;;5.28;3.95;;;17.20;73.50;;;;;;4772164;30;20052;-71
2021/10/08 14:35:38;;;;;;;4.30;3.90;;;17.30;73.50;;;;;;4771994;30;20139;-69
2021/10/08 14:38:04;;;;;;;4.20;3.80;;;17.30;73.50;;;;;;4773052;30;20078;-69
2021/10/08 14:40:30;;;;;;;4.20;3.80;;;17.30;73.60;;;;;;4775354;30;20055;-69
2021/10/08 14:42:56;;;;;;;4.13;3.65;;;17.30;73.50;;;;;;4775248;30;20058;-70
2021/10/08 14:45:23;;;;;;;4.38;3.97;;;17.30;73.60;;;;;;4775796;30;20127;-69
2021/10/08 14:47:49;;;;;;;4.60;3.97;;;17.30;73.60;;;;;;4775307;30;20067;-70
2021/10/08 14:50:15;;;;;;;4.57;3.53;;;17.30;73.60;;;;;;4775454;30;20375;-69
2021/10/08 14:52:42;;;;;;;4.28;3.78;;;17.30;73.60;;;;;;4775328;30;20052;-70
2021/10/08 14:57:56;;;;;;;3.88;3.22;;;17.30;73.70;;;;;;4762472;30;20150;-70
2021/10/08 15:00:25;;;;;;;3.60;3.25;;;17.30;73.70;;;;;;4775307;30;20063;-69
2021/10/08 15:02:51;;;;;;;3.53;3.20;;;17.30;73.70;;;;;;4774803;30;20460;-70
2021/10/08 15:05:17;;;;;;;3.65;3.30;;;17.30;73.70;;;;;;4774884;30;20070;-69
2021/10/08 15:07:43;;;;;;;4.10;3.53;;;17.30;73.70;;;;;;4775235;30;20067;-69
2021/10/08 15:10:09;;;;;;;4.20;3.70;;;17.30;73.70;;;;;;4774719;30;20063;-70
2021/10/08 15:12:35;;;;;;;4.05;3.63;;;17.30;73.70;;;;;;4774791;30;20117;-69
2021/10/08 15:15:00;;;;;;;3.72;3.17;;;17.30;74.30;;;;;;4774763;30;20425;-70
2021/10/08 15:17:26;;;;;;;3.92;3.42;;;17.30;73.70;;;;;;4774763;30;20051;-69
2021/10/08 15:19:52;;;;;;;4.18;3.40;;;17.30;73.70;;;;;;4774670;30;20083;-70
2021/10/08 15:22:18;;;;;;;5.75;3.95;;;17.40;73.70;;;;;;4774544;30;20052;-69
2021/10/08 15:24:44;;;;;;;5.28;4.05;;;17.40;73.70;;;;;;4777439;30;20055;-72
2021/10/08 15:27:10;;;;;;;27.98;5.78;;;17.40;73.80;;;;;;4792095;30;20441;-76
2021/10/08 15:29:35;;;;;;;11.77;4.40;;;17.40;73.80;;;;;;4792359;30;20128;-74
2021/10/08 15:32:01;;;;;;;7.57;4.70;;;17.40;73.50;;;;;;4793054;30;20051;-72
2021/10/08 15:34:28;;;;;;;10.73;4.93;;;17.50;73.00;;;;;;4792413;30;20055;-74
2021/10/08 15:36:56;;;;;;;15.02;5.05;;;17.50;72.90;;;;;;4792323;30;20436;-73
2021/10/08 15:39:23;;;;;;;10.05;4.50;;;17.50;72.70;;;;;;4778415;30;20063;-70
2021/10/08 15:41:50;;;;;;;11.27;5.00;;;17.50;72.80;;;;;;4759087;30;20056;-70
2021/10/08 15:44:16;;;;;;;8.00;4.35;;;17.60;72.90;;;;;;4758908;30;20051;-69
2021/10/08 15:46:43;;;;;;;10.73;5.60;;;17.50;72.90;;;;;;4760836;30;20051;-70
2021/10/08 15:49:09;;;;;;;10.73;6.75;;;17.50;72.50;;;;;;4792206;29;20357;-69
2021/10/08 15:51:34;;;;;;;10.73;6.78;;;17.60;71.40;;;;;;4792098;30;20066;-70
2021/10/08 15:54:00;;;;;;;11.57;6.28;;;17.70;70.90;;;;;;4792266;30;20474;-71
2021/10/08 15:56:26;;;;;;;8.82;6.22;;;17.70;70.40;;;;;;4791915;30;20051;-77
2021/10/08 15:58:52;;;;;;;8.98;5.90;;;17.70;69.80;;;;;;4776443;30;20082;-72
2021/10/08 16:01:18;;;;;;;8.00;5.80;;;17.80;69.50;;;;;;4776214;30;20067;-71
2021/10/08 16:03:44;;;;;;;9.75;6.47;;;17.80;69.40;;;;;;4775742;30;20070;-71
2021/10/08 16:06:09;;;;;;;9.68;6.70;;;17.80;69.40;;;;;;4792286;30;20134;-74
2021/10/08 16:08:35;;;;;;;7.53;6.13;;;17.80;70.10;;;;;;4775801;30;20087;-70
2021/10/08 16:11:01;;;;;;;11.63;5.60;;;17.80;70.40;;;;;;4791745;30;20088;-70
2021/10/08 16:13:27;;;;;;;20.67;7.18;;;17.70;70.90;;;;;;4791631;30;20420;-70
2021/10/08 16:15:53;;;;;;;13.48;6.20;;;17.70;71.00;;;;;;4792186;30;20086;-69
2021/10/08 16:18:24;;;;;;;12.20;6.60;;;17.80;71.10;;;;;;4792035;30;20086;-69
2021/10/08 16:20:50;;;;;;;15.23;6.10;;;17.80;71.30;;;;;;4791825;30;20337;-70
2021/10/08 16:23:16;;;;;;;18.75;6.15;;;17.80;71.10;;;;;;4791616;30;20138;-67
2021/10/08 16:25:42;;;;;;;21.23;7.13;;;17.80;71.10;;;;;;4775640;30;20055;-69
2021/10/08 16:28:08;;;;;;;14.88;6.07;;;17.90;71.50;;;;;;4791499;30;20043;-69
2021/10/08 16:30:34;;;;;;;15.95;6.30;;;17.90;71.40;;;;;;4792226;30;20423;-70
2021/10/08 16:33:01;;;;;;;15.27;6.40;;;17.90;71.30;;;;;;4791757;30;20090;-69
2021/10/08 16:35:29;;;;;;;13.95;6.85;;;18.00;71.20;;;;;;4791612;30;20055;-70
2021/10/08 16:37:55;;;;;;;16.23;6.63;;;18.00;71.10;;;;;;4775649;30;20051;-69
2021/10/08 16:40:21;;;;;;;25.33;8.23;;;18.00;70.90;;;;;;4775603;30;20055;-69
2021/10/08 16:42:48;;;;;;;11.73;6.20;;;18.00;70.90;;;;;;4791787;30;20131;-70
2021/10/08 16:45:24;;;;;;;13.32;5.95;;;18.00;70.90;;;;;;4791167;30;20062;-69
2021/10/08 16:47:51;;;;;;;11.52;6.25;;;17.90;70.80;;;;;;4791202;30;20273;-72
2021/10/08 16:50:18;;;;;;;13.25;6.43;;;18.00;71.10;;;;;;4791085;30;20062;-69
2021/10/08 16:52:44;;;;;;;16.48;7.30;;;18.00;71.10;;;;;;4791036;30;20063;-69
2021/10/08 16:55:13;;;;;;;11.52;6.20;;;17.90;71.30;;;;;;4791206;30;20069;-69
2021/10/08 16:57:39;;;;;;;12.20;5.65;;;17.90;71.90;;;;;;4791349;30;20051;-69
2021/10/08 17:00:05;;;;;;;14.80;5.53;;;17.90;72.60;;;;;;4775164;29;20437;-69
2021/10/08 17:02:31;;;;;;;11.32;5.45;;;17.90;72.70;;;;;;4774942;30;20471;-70
2021/10/08 17:04:57;;;;;;;13.95;4.40;;;18.00;72.80;;;;;;4789076;30;20047;-72
2021/10/08 17:07:24;;;;;;;8.88;5.13;;;18.20;72.80;;;;;;4775850;30;20047;-74
2021/10/08 17:09:51;;;;;;;14.68;4.07;;;18.30;72.70;;;;;;4790337;30;20059;-72
2021/10/08 17:12:19;;;;;;;9.40;3.78;;;18.40;72.60;;;;;;4790516;30;20063;-74
2021/10/08 17:14:44;;;;;;;10.98;4.03;;;18.50;72.50;;;;;;4790495;30;20055;-70
2021/10/08 17:17:10;;;;;;;10.93;3.75;;;18.60;72.40;;;;;;4790706;30;20107;-73
2021/10/08 17:19:36;;;;;;;10.30;3.85;;;18.70;72.20;;;;;;4790452;30;20051;-70
2021/10/08 17:22:02;;;;;;;8.60;3.50;;;18.70;72.20;;;;;;4790592;30;20050;-70
2021/10/08 17:24:31;;;;;;;10.43;3.40;;;18.80;72.10;;;;;;4790322;30;20429;-70
2021/10/08 17:35:21;;;;;;;5.78;3.17;;;18.80;72.10;;;;;;4790313;30;20071;-70
2021/10/08 17:37:47;;;;;;;9.70;3.30;;;18.80;72.10;;;;;;4790585;30;20094;-70
2021/10/08 17:40:13;;;;;;;10.13;3.28;;;18.70;72.30;;;;;;4790577;30;20138;-71
2021/10/08 17:42:39;;;;;;;12.02;3.45;;;18.70;72.50;;;;;;4790373;30;20130;-70
2021/10/08 17:45:05;;;;;;;9.60;3.58;;;18.70;72.50;;;;;;4790277;30;20062;-71
2021/10/08 17:47:32;;;;;;;11.52;2.85;;;18.70;72.60;;;;;;4790289;30;20055;-70
2021/10/08 17:49:58;;;;;;;18.85;3.78;;;18.60;72.80;;;;;;4790157;30;20055;-70
2021/10/08 17:52:23;;;;;;;10.60;3.88;;;18.60;73.10;;;;;;4790420;30;20066;-70
2021/10/08 17:54:49;;;;;;;10.68;3.40;;;18.60;73.50;;;;;;4790056;30;20104;-70
2021/10/08 17:57:15;;;;;;;10.18;3.53;;;18.50;73.40;;;;;;4790332;30;20101;-71
2021/10/08 17:59:41;;;;;;;9.25;3.15;;;18.50;73.40;;;;;;4774507;30;20067;-70
2021/10/08 18:02:09;;;;;;;13.63;3.22;;;18.50;73.40;;;;;;4790546;30;20054;-70
2021/10/08 18:04:35;;;;;;;9.50;3.03;;;18.50;73.40;;;;;;4790444;30;20432;-70
2021/10/08 18:07:01;;;;;;;14.15;3.75;;;18.50;73.40;;;;;;4790108;30;20089;-70
2021/10/08 18:09:27;;;;;;;12.85;3.72;;;18.50;73.20;;;;;;4790406;30;20368;-70
2021/10/08 18:11:52;;;;;;;8.77;3.08;;;18.50;73.20;;;;;;4790507;29;20059;-70
2021/10/08 18:14:18;;;;;;;7.32;3.13;;;18.40;73.20;;;;;;4789175;30;20051;-69
2021/10/08 18:16:45;;;;;;;10.25;2.95;;;18.40;73.20;;;;;;4789811;30;20059;-70
2021/10/08 18:19:11;;;;;;;14.40;2.92;;;18.30;73.20;;;;;;4790248;30;20051;-71
2021/10/08 18:21:37;;;;;;;11.10;3.25;;;18.40;73.00;;;;;;4774466;30;20088;-71
2021/10/08 18:24:04;;;;;;;8.63;2.70;;;18.30;73.70;;;;;;4778228;30;20059;-72
2021/10/08 18:26:34;;;;;;;8.45;2.88;;;18.30;73.10;;;;;;4772146;30;20098;-72
2021/10/08 18:29:15;;;;;;;5.43;2.90;;;18.30;73.10;;;;;;4749449;30;20112;-71
2021/10/08 18:31:49;;;;;;;7.85;3.08;;;18.20;73.20;;;;;;4772753;30;20048;-67
2021/10/08 18:34:16;;;;;;;6.45;2.22;;;18.20;73.30;;;;;;4773246;30;20051;-71
2021/10/08 18:36:42;;;;;;;9.38;3.05;;;18.20;73.30;;;;;;4774595;30;20078;-71
2021/10/08 18:39:08;;;;;;;9.18;2.90;;;18.20;73.40;;;;;;4789425;30;20077;-70
2021/10/08 18:41:34;;;;;;;9.25;2.85;;;18.20;72.90;;;;;;4774509;30;20059;-71
2021/10/08 18:44:00;;;;;;;8.30;2.40;;;18.10;72.30;;;;;;4789885;30;20047;-69
2021/10/08 18:46:30;;;;;;;8.90;3.13;;;18.00;72.50;;;;;;4789987;30;20059;-70
2021/10/08 18:48:56;;;;;;;7.53;2.90;;;17.90;72.60;;;;;;4786840;30;20051;-70
2021/10/08 18:51:22;;;;;;;5.93;2.88;;;17.80;72.80;;;;;;4771209;30;20063;-70
